Airfield :
LOGIN :

Register | Disclaimer

   EN    FR    IT 

 










Legend :    VFR   Marginal VFR   IFR   Intensive IFR   Very Intensive IFR
Visi :
Ceiling :
>= 8 km
>= 3000ft
5 to 8 km
1000 to 3000 ft
1500m to 5 km
500 to 1000 ft
800 to 1500m
200 to 500 ft
< 800m
< 200 ft
Symbols :   Thunderstorms  Fog  Heavy snow  Heavy precipitations  Wind > 20 kt
SIGMETs :     Misc.  Thunderstorms  Icing  Turbulence  Mountain Waves  Volcanic Ashes






- Airport Elevation : 53 ft
- IATA code : HAM


EDDH - Hamburg

CURRENT METAR :
  • 152250Z 23012KT 9999 BKN024 BKN041 07/03 Q1004 NOSIG

EXPIRED METARs :
  • 152220Z 24014KT 210V270 9999 BKN023 08/03 Q1004 NOSIG
  • 152150Z 23015KT 9999 SCT024 BKN037 08/03 Q1004 NOSIG
  • 152120Z 23013G23KT 9999 SCT024 BKN030 08/04 Q1003 NOSIG
  • 152050Z 23014KT 9999 FEW016 BKN024 07/04 Q1003 NOSIG
  • 152020Z 23014KT 9999 -SHRA FEW016 BKN024 07/04 Q1002 NOSIG

TAF TAF EDDH
Valid from the 15 at 18:00 until the 17 at 00:00 UTC


151700Z 1518/1624 23015G25KT 9999 FEW035
BECMG 1518/1521 22013KT
BECMG 1600/1603 17008KT
TEMPO 1614/1618 BKN012
BECMG 1618/1620 4500 BR BKN014
TEMPO 1620/1624 2000 -DZ BKN003



MET'MAP, your aeronautical weather chart ! - Copyright ORBIFLY December 2007 - Disclaimer

ORBIFLY MET'MAP TEAM :

Programming & Development : Alexandra Zaïnal
Concept & original design : Baudouin d'Aumeries
Assistance for programming : Marc-Olivier Méhu
Technical & hardware support : Manuel Goepfert

Contact : metmap@orbifly.com




SOURCES & CREDITS :

   NOAA